sensor_id;sensor_type;location;lat;lon;timestamp;pressure;altitude;pressure_sealevel;temperature;humidity
74627;BME280;63132;52.268;5.192;2023-06-22T00:00:40;101893.00;;;21.04;62.55
74627;BME280;63132;52.268;5.192;2023-06-22T00:03:07;101893.50;;;21.08;62.94
74627;BME280;63132;52.268;5.192;2023-06-22T00:05:33;101889.63;;;21.11;62.79
74627;BME280;63132;52.268;5.192;2023-06-22T00:08:02;101885.75;;;21.13;62.78
74627;BME280;63132;52.268;5.192;2023-06-22T00:10:28;101887.06;;;21.01;62.44
74627;BME280;63132;52.268;5.192;2023-06-22T00:12:53;101890.41;;;20.94;62.85
74627;BME280;63132;52.268;5.192;2023-06-22T00:15:19;101890.41;;;20.94;62.70
74627;BME280;63132;52.268;5.192;2023-06-22T00:17:45;101889.75;;;20.92;62.34
74627;BME280;63132;52.268;5.192;2023-06-22T00:20:11;101888.69;;;20.85;62.64
74627;BME280;63132;52.268;5.192;2023-06-22T00:22:36;101888.69;;;20.77;63.29
74627;BME280;63132;52.268;5.192;2023-06-22T00:25:08;101897.31;;;20.80;63.33
74627;BME280;63132;52.268;5.192;2023-06-22T00:27:34;101889.53;;;20.77;63.27
74627;BME280;63132;52.268;5.192;2023-06-22T00:30:00;101892.72;;;20.73;63.32
74627;BME280;63132;52.268;5.192;2023-06-22T00:32:25;101887.34;;;20.81;63.07
74627;BME280;63132;52.268;5.192;2023-06-22T00:34:50;101885.78;;;20.70;63.28
74627;BME280;63132;52.268;5.192;2023-06-22T00:37:16;101886.28;;;20.65;63.52
74627;BME280;63132;52.268;5.192;2023-06-22T00:39:42;101889.34;;;20.70;63.50
74627;BME280;63132;52.268;5.192;2023-06-22T00:42:08;101883.91;;;20.62;63.52
74627;BME280;63132;52.268;5.192;2023-06-22T00:44:34;101882.22;;;20.61;63.62
74627;BME280;63132;52.268;5.192;2023-06-22T00:46:59;101879.19;;;20.64;63.97
74627;BME280;63132;52.268;5.192;2023-06-22T00:49:25;101876.34;;;20.66;63.63
74627;BME280;63132;52.268;5.192;2023-06-22T00:51:51;101866.22;;;20.76;63.72
74627;BME280;63132;52.268;5.192;2023-06-22T00:54:17;101862.13;;;20.72;63.89
74627;BME280;63132;52.268;5.192;2023-06-22T00:56:56;101862.28;;;20.62;64.22
74627;BME280;63132;52.268;5.192;2023-06-22T00:59:23;101862.13;;;20.72;64.20
74627;BME280;63132;52.268;5.192;2023-06-22T01:01:49;101855.75;;;20.73;64.40
74627;BME280;63132;52.268;5.192;2023-06-22T01:04:15;101864.72;;;20.90;63.91
74627;BME280;63132;52.268;5.192;2023-06-22T01:07:27;101866.72;;;20.72;64.27
74627;BME280;63132;52.268;5.192;2023-06-22T01:10:06;101861.75;;;20.58;64.41
74627;BME280;63132;52.268;5.192;2023-06-22T01:12:32;101858.41;;;20.65;64.04
74627;BME280;63132;52.268;5.192;2023-06-22T01:15:25;101858.06;;;20.60;64.36
74627;BME280;63132;52.268;5.192;2023-06-22T01:17:52;101861.94;;;20.57;63.83
74627;BME280;63132;52.268;5.192;2023-06-22T01:20:19;101863.91;;;20.38;63.85
74627;BME280;63132;52.268;5.192;2023-06-22T01:25:38;101867.56;;;20.29;64.86
74627;BME280;63132;52.268;5.192;2023-06-22T01:30:57;101858.44;;;20.30;64.68
74627;BME280;63132;52.268;5.192;2023-06-22T01:33:35;101861.47;;;20.27;64.63
74627;BME280;63132;52.268;5.192;2023-06-22T01:36:03;101856.44;;;20.32;64.40
74627;BME280;63132;52.268;5.192;2023-06-22T01:38:29;101855.91;;;20.28;64.66
74627;BME280;63132;52.268;5.192;2023-06-22T01:40:57;101858.63;;;20.28;64.83
74627;BME280;63132;52.268;5.192;2023-06-22T01:43:24;101860.16;;;20.31;64.65
74627;BME280;63132;52.268;5.192;2023-06-22T01:45:51;101860.16;;;20.31;64.40
74627;BME280;63132;52.268;5.192;2023-06-22T01:48:17;101858.09;;;20.25;64.17
74627;BME280;63132;52.268;5.192;2023-06-22T01:50:43;101860.38;;;20.11;64.11
74627;BME280;63132;52.268;5.192;2023-06-22T01:53:08;101857.63;;;20.03;64.69
74627;BME280;63132;52.268;5.192;2023-06-22T01:55:34;101853.38;;;20.00;64.57
74627;BME280;63132;52.268;5.192;2023-06-22T01:57:59;101839.69;;;19.93;64.91
74627;BME280;63132;52.268;5.192;2023-06-22T02:00:26;101856.53;;;19.87;66.30
74627;BME280;63132;52.268;5.192;2023-06-22T02:03:06;101847.03;;;19.83;66.71
74627;BME280;63132;52.268;5.192;2023-06-22T02:05:39;101844.94;;;19.95;66.12
74627;BME280;63132;52.268;5.192;2023-06-22T02:08:13;101844.94;;;20.03;65.70
74627;BME280;63132;52.268;5.192;2023-06-22T02:15:54;101847.28;;;19.98;65.70
74627;BME280;63132;52.268;5.192;2023-06-22T02:18:19;101843.03;;;19.95;65.68
74627;BME280;63132;52.268;5.192;2023-06-22T02:20:45;101842.06;;;19.96;65.76
74627;BME280;63132;52.268;5.192;2023-06-22T02:23:11;101848.84;;;20.01;65.15
74627;BME280;63132;52.268;5.192;2023-06-22T02:25:36;101838.03;;;20.01;65.04
74627;BME280;63132;52.268;5.192;2023-06-22T02:28:02;101836.50;;;19.98;65.32
74627;BME280;63132;52.268;5.192;2023-06-22T02:30:28;101838.66;;;19.94;65.24
74627;BME280;63132;52.268;5.192;2023-06-22T02:32:53;101837.81;;;19.94;65.37
74627;BME280;63132;52.268;5.192;2023-06-22T02:35:28;101838.19;;;19.99;65.17
74627;BME280;63132;52.268;5.192;2023-06-22T02:38:00;101841.38;;;19.94;65.06
74627;BME280;63132;52.268;5.192;2023-06-22T02:40:26;101836.31;;;19.91;65.17
74627;BME280;63132;52.268;5.192;2023-06-22T02:42:51;101834.06;;;19.86;65.22
74627;BME280;63132;52.268;5.192;2023-06-22T02:45:17;101833.53;;;19.83;65.09
74627;BME280;63132;52.268;5.192;2023-06-22T02:47:42;101842.66;;;19.82;65.09
74627;BME280;63132;52.268;5.192;2023-06-22T02:50:08;101833.38;;;19.84;65.14
74627;BME280;63132;52.268;5.192;2023-06-22T02:52:34;101836.75;;;19.86;65.11
74627;BME280;63132;52.268;5.192;2023-06-22T02:54:59;101833.91;;;19.88;65.05
74627;BME280;63132;52.268;5.192;2023-06-22T02:57:25;101831.53;;;19.85;65.06
74627;BME280;63132;52.268;5.192;2023-06-22T02:59:50;101829.28;;;19.80;65.31
74627;BME280;63132;52.268;5.192;2023-06-22T03:02:15;101818.38;;;19.82;65.25
74627;BME280;63132;52.268;5.192;2023-06-22T03:04:41;101822.38;;;19.78;65.12
74627;BME280;63132;52.268;5.192;2023-06-22T03:07:07;101826.72;;;19.70;65.28
74627;BME280;63132;52.268;5.192;2023-06-22T03:09:32;101831.56;;;19.67;65.26
74627;BME280;63132;52.268;5.192;2023-06-22T03:11:58;101822.25;;;19.61;64.89
74627;BME280;63132;52.268;5.192;2023-06-22T03:14:23;101820.03;;;19.56;65.19
74627;BME280;63132;52.268;5.192;2023-06-22T03:16:48;101827.00;;;19.59;65.36
74627;BME280;63132;52.268;5.192;2023-06-22T03:19:14;101822.91;;;19.55;65.15
74627;BME280;63132;52.268;5.192;2023-06-22T03:21:40;101820.66;;;19.50;64.58
74627;BME280;63132;52.268;5.192;2023-06-22T03:24:08;101823.72;;;19.55;65.24
74627;BME280;63132;52.268;5.192;2023-06-22T03:26:34;101821.84;;;19.47;65.47
74627;BME280;63132;52.268;5.192;2023-06-22T03:28:59;101832.31;;;19.50;65.41
74627;BME280;63132;52.268;5.192;2023-06-22T03:31:25;101835.38;;;19.56;65.06
74627;BME280;63132;52.268;5.192;2023-06-22T03:33:50;101835.38;;;19.56;65.23
74627;BME280;63132;52.268;5.192;2023-06-22T03:36:17;101827.28;;;19.56;65.26
74627;BME280;63132;52.268;5.192;2023-06-22T03:38:47;101809.59;;;19.53;64.98
74627;BME280;63132;52.268;5.192;2023-06-22T03:41:12;101818.34;;;19.55;65.39
74627;BME280;63132;52.268;5.192;2023-06-22T03:43:38;101817.88;;;19.60;65.32
74627;BME280;63132;52.268;5.192;2023-06-22T03:46:03;101815.50;;;19.57;65.33
74627;BME280;63132;52.268;5.192;2023-06-22T03:48:29;101813.88;;;19.46;65.70
74627;BME280;63132;52.268;5.192;2023-06-22T03:50:54;101808.19;;;19.49;65.78
74627;BME280;63132;52.268;5.192;2023-06-22T03:53:19;101807.09;;;19.60;65.46
74627;BME280;63132;52.268;5.192;2023-06-22T03:55:51;101807.50;;;19.73;65.34
74627;BME280;63132;52.268;5.192;2023-06-22T03:58:20;101813.91;;;19.72;65.32
74627;BME280;63132;52.268;5.192;2023-06-22T04:00:50;101807.00;;;19.78;64.91
74627;BME280;63132;52.268;5.192;2023-06-22T04:03:16;101821.19;;;19.80;65.06
74627;BME280;63132;52.268;5.192;2023-06-22T04:05:44;101813.59;;;19.75;65.18
74627;BME280;63132;52.268;5.192;2023-06-22T04:08:10;101808.56;;;19.81;65.17
74627;BME280;63132;52.268;5.192;2023-06-22T04:10:35;101815.09;;;19.78;65.46
74627;BME280;63132;52.268;5.192;2023-06-22T04:13:01;101806.91;;;19.88;65.36
74627;BME280;63132;52.268;5.192;2023-06-22T04:15:26;101812.47;;;19.86;65.74
74627;BME280;63132;52.268;5.192;2023-06-22T04:17:54;101812.72;;;20.02;66.00
74627;BME280;63132;52.268;5.192;2023-06-22T04:20:19;101804.78;;;20.00;66.56
74627;BME280;63132;52.268;5.192;2023-06-22T04:22:44;101810.78;;;20.12;66.37
74627;BME280;63132;52.268;5.192;2023-06-22T04:25:11;101802.44;;;20.40;65.20
74627;BME280;63132;52.268;5.192;2023-06-22T04:27:36;101806.13;;;20.39;65.47
74627;BME280;63132;52.268;5.192;2023-06-22T04:30:05;101803.97;;;20.43;65.75
74627;BME280;63132;52.268;5.192;2023-06-22T04:32:32;101804.63;;;20.45;66.78
74627;BME280;63132;52.268;5.192;2023-06-22T04:34:57;101800.44;;;20.59;66.58
74627;BME280;63132;52.268;5.192;2023-06-22T04:37:23;101801.66;;;20.65;66.51
74627;BME280;63132;52.268;5.192;2023-06-22T04:39:49;101799.44;;;20.68;66.99
74627;BME280;63132;52.268;5.192;2023-06-22T04:42:15;101796.78;;;20.77;67.01
74627;BME280;63132;52.268;5.192;2023-06-22T04:44:40;101798.31;;;20.88;66.90
74627;BME280;63132;52.268;5.192;2023-06-22T04:47:07;101805.59;;;20.96;66.86
74627;BME280;63132;52.268;5.192;2023-06-22T04:49:34;101804.72;;;20.87;67.64
74627;BME280;63132;52.268;5.192;2023-06-22T04:52:07;101801.22;;;21.11;66.82
74627;BME280;63132;52.268;5.192;2023-06-22T04:54:33;101804.25;;;21.16;66.60
74627;BME280;63132;52.268;5.192;2023-06-22T04:57:00;101798.84;;;21.16;67.20
74627;BME280;63132;52.268;5.192;2023-06-22T04:59:30;101801.91;;;21.38;66.59
74627;BME280;63132;52.268;5.192;2023-06-22T05:01:56;101802.91;;;21.46;66.55
74627;BME280;63132;52.268;5.192;2023-06-22T05:04:22;101808.66;;;21.26;67.07
74627;BME280;63132;52.268;5.192;2023-06-22T05:06:49;101809.47;;;21.51;66.27
74627;BME280;63132;52.268;5.192;2023-06-22T05:09:15;101806.91;;;21.58;66.11
74627;BME280;63132;52.268;5.192;2023-06-22T05:11:40;101796.75;;;21.85;65.29
74627;BME280;63132;52.268;5.192;2023-06-22T05:14:05;101793.28;;;22.00;64.77
74627;BME280;63132;52.268;5.192;2023-06-22T05:16:31;101789.22;;;21.96;65.37
74627;BME280;63132;52.268;5.192;2023-06-22T05:18:56;101793.88;;;22.19;65.15
74627;BME280;63132;52.268;5.192;2023-06-22T05:21:23;101788.38;;;22.04;64.98
74627;BME280;63132;52.268;5.192;2023-06-22T05:23:50;101786.69;;;22.34;64.48
74627;BME280;63132;52.268;5.192;2023-06-22T05:26:15;101793.75;;;22.44;63.98
74627;BME280;63132;52.268;5.192;2023-06-22T05:28:41;101791.97;;;22.59;63.91
74627;BME280;63132;52.268;5.192;2023-06-22T05:31:06;101795.41;;;22.53;64.26
74627;BME280;63132;52.268;5.192;2023-06-22T05:33:31;101805.03;;;22.88;63.36
74627;BME280;63132;52.268;5.192;2023-06-22T05:35:57;101809.31;;;22.82;62.91
74627;BME280;63132;52.268;5.192;2023-06-22T05:38:22;101804.25;;;22.79;63.85
74627;BME280;63132;52.268;5.192;2023-06-22T05:40:47;101809.16;;;23.22;62.40
74627;BME280;63132;52.268;5.192;2023-06-22T05:43:13;101802.56;;;23.40;62.21
74627;BME280;63132;52.268;5.192;2023-06-22T05:45:38;101802.34;;;23.26;62.16
74627;BME280;63132;52.268;5.192;2023-06-22T05:48:04;101803.50;;;23.09;63.05
74627;BME280;63132;52.268;5.192;2023-06-22T05:50:29;101808.00;;;23.40;62.17
74627;BME280;63132;52.268;5.192;2023-06-22T05:52:55;101815.63;;;23.60;61.49
74627;BME280;63132;52.268;5.192;2023-06-22T05:55:20;101812.47;;;23.71;61.34
74627;BME280;63132;52.268;5.192;2023-06-22T05:57:45;101813.28;;;23.87;60.76
74627;BME280;63132;52.268;5.192;2023-06-22T06:00:11;101812.00;;;23.98;60.08
74627;BME280;63132;52.268;5.192;2023-06-22T06:02:37;101826.88;;;23.87;60.87
74627;BME280;63132;52.268;5.192;2023-06-22T06:05:09;101810.19;;;24.05;60.40
74627;BME280;63132;52.268;5.192;2023-06-22T06:07:34;101815.84;;;24.04;59.78
74627;BME280;63132;52.268;5.192;2023-06-22T06:10:00;101811.78;;;24.15;60.69
74627;BME280;63132;52.268;5.192;2023-06-22T06:12:26;101812.59;;;24.45;59.25
74627;BME280;63132;52.268;5.192;2023-06-22T06:14:51;101812.88;;;24.73;58.74
74627;BME280;63132;52.268;5.192;2023-06-22T06:17:18;101807.09;;;24.23;59.12
74627;BME280;63132;52.268;5.192;2023-06-22T06:19:43;101804.50;;;24.52;59.32
74627;BME280;63132;52.268;5.192;2023-06-22T06:22:09;101811.69;;;24.97;57.35
74627;BME280;63132;52.268;5.192;2023-06-22T06:24:34;101807.50;;;25.01;56.85
74627;BME280;63132;52.268;5.192;2023-06-22T06:27:00;101803.09;;;24.78;56.93
74627;BME280;63132;52.268;5.192;2023-06-22T06:29:25;101809.06;;;24.89;58.11
74627;BME280;63132;52.268;5.192;2023-06-22T06:31:50;101796.66;;;24.42;58.72
74627;BME280;63132;52.268;5.192;2023-06-22T06:34:16;101795.47;;;24.30;58.66
74627;BME280;63132;52.268;5.192;2023-06-22T06:36:41;101787.34;;;24.52;57.28
74627;BME280;63132;52.268;5.192;2023-06-22T06:39:07;101791.13;;;24.73;57.19
74627;BME280;63132;52.268;5.192;2023-06-22T06:41:34;101786.84;;;25.07;56.71
74627;BME280;63132;52.268;5.192;2023-06-22T06:43:59;101789.34;;;24.87;56.40
74627;BME280;63132;52.268;5.192;2023-06-22T06:46:25;101795.25;;;24.90;56.06
74627;BME280;63132;52.268;5.192;2023-06-22T06:48:50;101784.19;;;24.70;56.14
74627;BME280;63132;52.268;5.192;2023-06-22T06:51:16;101786.31;;;24.75;55.77
74627;BME280;63132;52.268;5.192;2023-06-22T06:53:41;101791.84;;;24.81;56.22
74627;BME280;63132;52.268;5.192;2023-06-22T06:56:07;101784.81;;;25.45;54.97
74627;BME280;63132;52.268;5.192;2023-06-22T06:58:32;101785.91;;;25.50;54.88
74627;BME280;63132;52.268;5.192;2023-06-22T07:00:58;101788.84;;;25.77;53.48
74627;BME280;63132;52.268;5.192;2023-06-22T07:03:23;101794.28;;;25.20;54.56
74627;BME280;63132;52.268;5.192;2023-06-22T07:05:49;101782.97;;;25.16;55.11
74627;BME280;63132;52.268;5.192;2023-06-22T07:08:14;101787.09;;;25.12;54.70
74627;BME280;63132;52.268;5.192;2023-06-22T07:10:39;101781.75;;;24.97;55.56
74627;BME280;63132;52.268;5.192;2023-06-22T07:13:05;101780.91;;;25.25;54.84
74627;BME280;63132;52.268;5.192;2023-06-22T07:15:30;101785.28;;;25.55;54.38
74627;BME280;63132;52.268;5.192;2023-06-22T07:17:55;101782.34;;;25.50;54.20
74627;BME280;63132;52.268;5.192;2023-06-22T07:20:21;101778.28;;;25.68;53.34
74627;BME280;63132;52.268;5.192;2023-06-22T07:22:46;101769.91;;;25.40;53.80
74627;BME280;63132;52.268;5.192;2023-06-22T07:25:12;101769.78;;;25.49;53.89
74627;BME280;63132;52.268;5.192;2023-06-22T07:27:43;101767.97;;;25.34;54.51
74627;BME280;63132;52.268;5.192;2023-06-22T07:30:09;101767.66;;;24.93;55.38
74627;BME280;63132;52.268;5.192;2023-06-22T07:32:35;101770.88;;;25.61;54.03
74627;BME280;63132;52.268;5.192;2023-06-22T07:35:01;101770.66;;;25.56;53.98
74627;BME280;63132;52.268;5.192;2023-06-22T07:37:28;101765.31;;;25.70;53.71
74627;BME280;63132;52.268;5.192;2023-06-22T07:39:55;101767.13;;;25.98;53.45
74627;BME280;63132;52.268;5.192;2023-06-22T07:42:27;101772.88;;;25.46;53.42
74627;BME280;63132;52.268;5.192;2023-06-22T07:44:53;101773.72;;;25.46;54.21
74627;BME280;63132;52.268;5.192;2023-06-22T07:47:18;101756.00;;;25.99;53.09
74627;BME280;63132;52.268;5.192;2023-06-22T07:49:45;101756.59;;;25.88;52.50
74627;BME280;63132;52.268;5.192;2023-06-22T07:52:10;101750.97;;;26.03;52.33
74627;BME280;63132;52.268;5.192;2023-06-22T07:54:36;101748.31;;;26.17;52.42
74627;BME280;63132;52.268;5.192;2023-06-22T07:57:01;101754.13;;;26.00;53.21
74627;BME280;63132;52.268;5.192;2023-06-22T07:59:27;101753.63;;;25.83;52.61
74627;BME280;63132;52.268;5.192;2023-06-22T08:01:52;101752.03;;;26.02;52.42
74627;BME280;63132;52.268;5.192;2023-06-22T08:04:17;101746.25;;;26.32;51.26
74627;BME280;63132;52.268;5.192;2023-06-22T08:06:43;101751.28;;;26.35;51.75
74627;BME280;63132;52.268;5.192;2023-06-22T08:09:08;101747.06;;;26.19;52.43
74627;BME280;63132;52.268;5.192;2023-06-22T08:11:34;101750.66;;;26.27;51.69
74627;BME280;63132;52.268;5.192;2023-06-22T08:13:59;101732.88;;;26.38;51.09
74627;BME280;63132;52.268;5.192;2023-06-22T08:16:25;101738.25;;;26.24;51.47
74627;BME280;63132;52.268;5.192;2023-06-22T08:18:50;101728.69;;;26.42;51.46
74627;BME280;63132;52.268;5.192;2023-06-22T08:21:15;101737.53;;;26.57;51.09
74627;BME280;63132;52.268;5.192;2023-06-22T08:23:42;101732.47;;;26.61;50.57
74627;BME280;63132;52.268;5.192;2023-06-22T08:26:07;101716.63;;;26.09;51.15
74627;BME280;63132;52.268;5.192;2023-06-22T08:28:32;101717.78;;;26.55;51.58
74627;BME280;63132;52.268;5.192;2023-06-22T08:30:59;101707.91;;;26.81;50.71
74627;BME280;63132;52.268;5.192;2023-06-22T08:33:26;101717.16;;;26.94;49.69
74627;BME280;63132;52.268;5.192;2023-06-22T08:35:57;101709.41;;;26.50;51.01
74627;BME280;63132;52.268;5.192;2023-06-22T08:38:23;101707.50;;;26.57;50.76
74627;BME280;63132;52.268;5.192;2023-06-22T08:40:48;101698.88;;;26.81;50.24
74627;BME280;63132;52.268;5.192;2023-06-22T08:43:14;101697.22;;;26.53;49.92
74627;BME280;63132;52.268;5.192;2023-06-22T08:45:39;101707.50;;;26.57;50.48
74627;BME280;63132;52.268;5.192;2023-06-22T08:48:05;101706.66;;;26.77;50.37
74627;BME280;63132;52.268;5.192;2023-06-22T08:50:30;101710.63;;;26.54;49.86
74627;BME280;63132;52.268;5.192;2023-06-22T08:52:56;101700.78;;;26.94;48.59
74627;BME280;63132;52.268;5.192;2023-06-22T08:55:21;101697.63;;;26.97;48.54
74627;BME280;63132;52.268;5.192;2023-06-22T08:57:46;101697.19;;;26.87;48.23
74627;BME280;63132;52.268;5.192;2023-06-22T09:00:12;101683.56;;;27.07;47.75
74627;BME280;63132;52.268;5.192;2023-06-22T09:02:46;101681.97;;;27.59;47.16
74627;BME280;63132;52.268;5.192;2023-06-22T09:05:12;101686.59;;;27.51;47.03
74627;BME280;63132;52.268;5.192;2023-06-22T09:07:37;101680.34;;;27.37;47.36
74627;BME280;63132;52.268;5.192;2023-06-22T09:10:03;101686.03;;;27.36;47.44
74627;BME280;63132;52.268;5.192;2023-06-22T09:12:33;101680.84;;;28.12;46.02
74627;BME280;63132;52.268;5.192;2023-06-22T09:15:01;101684.31;;;27.94;45.30
74627;BME280;63132;52.268;5.192;2023-06-22T09:17:27;101683.47;;;28.00;44.76
74627;BME280;63132;52.268;5.192;2023-06-22T09:19:53;101689.31;;;28.36;44.43
74627;BME280;63132;52.268;5.192;2023-06-22T09:22:18;101686.81;;;28.35;43.93
74627;BME280;63132;52.268;5.192;2023-06-22T09:24:44;101683.63;;;28.45;43.58
74627;BME280;63132;52.268;5.192;2023-06-22T09:27:09;101684.16;;;28.21;43.58
74627;BME280;63132;52.268;5.192;2023-06-22T09:29:34;101681.13;;;27.97;43.02
74627;BME280;63132;52.268;5.192;2023-06-22T09:32:00;101676.91;;;28.01;42.81
74627;BME280;63132;52.268;5.192;2023-06-22T09:34:26;101679.31;;;28.56;42.66
74627;BME280;63132;52.268;5.192;2023-06-22T09:36:52;101678.44;;;29.25;41.90
74627;BME280;63132;52.268;5.192;2023-06-22T09:39:20;101680.78;;;29.59;41.37
74627;BME280;63132;52.268;5.192;2023-06-22T09:41:45;101676.09;;;29.97;40.10
74627;BME280;63132;52.268;5.192;2023-06-22T09:44:11;101681.84;;;30.08;40.79
74627;BME280;63132;52.268;5.192;2023-06-22T09:46:36;101682.38;;;29.98;39.17
74627;BME280;63132;52.268;5.192;2023-06-22T09:49:01;101681.09;;;29.70;39.19
74627;BME280;63132;52.268;5.192;2023-06-22T09:51:27;101685.50;;;29.52;39.78
74627;BME280;63132;52.268;5.192;2023-06-22T09:53:53;101685.06;;;29.74;39.33
74627;BME280;63132;52.268;5.192;2023-06-22T09:56:21;101672.81;;;29.88;39.97
74627;BME280;63132;52.268;5.192;2023-06-22T09:58:47;101677.13;;;29.47;40.11
74627;BME280;63132;52.268;5.192;2023-06-22T10:01:15;101656.94;;;30.21;39.55
74627;BME280;63132;52.268;5.192;2023-06-22T10:03:40;101670.88;;;29.58;39.50
74627;BME280;63132;52.268;5.192;2023-06-22T10:06:07;101675.94;;;29.24;40.06
74627;BME280;63132;52.268;5.192;2023-06-22T10:08:33;101665.00;;;30.04;39.40
74627;BME280;63132;52.268;5.192;2023-06-22T10:10:59;101664.22;;;29.73;40.27
74627;BME280;63132;52.268;5.192;2023-06-22T10:13:24;101660.44;;;30.29;38.79
74627;BME280;63132;52.268;5.192;2023-06-22T10:15:50;101661.31;;;29.68;39.67
74627;BME280;63132;52.268;5.192;2023-06-22T10:18:17;101649.78;;;29.77;39.00
74627;BME280;63132;52.268;5.192;2023-06-22T10:20:44;101657.69;;;29.86;38.12
74627;BME280;63132;52.268;5.192;2023-06-22T10:23:09;101660.19;;;29.87;38.98
74627;BME280;63132;52.268;5.192;2023-06-22T10:25:34;101655.56;;;30.31;38.16
74627;BME280;63132;52.268;5.192;2023-06-22T10:28:00;101656.69;;;30.11;38.19
74627;BME280;63132;52.268;5.192;2023-06-22T10:30:26;101654.16;;;29.66;39.59
74627;BME280;63132;52.268;5.192;2023-06-22T10:32:54;101651.88;;;29.63;40.60
74627;BME280;63132;52.268;5.192;2023-06-22T10:35:19;101649.88;;;30.13;39.15
74627;BME280;63132;52.268;5.192;2023-06-22T10:37:45;101650.66;;;29.59;39.54
74627;BME280;63132;52.268;5.192;2023-06-22T10:40:15;101650.72;;;29.52;40.13
74627;BME280;63132;52.268;5.192;2023-06-22T10:42:40;101649.72;;;29.84;39.35
74627;BME280;63132;52.268;5.192;2023-06-22T10:45:07;101649.56;;;30.22;39.21
74627;BME280;63132;52.268;5.192;2023-06-22T10:47:33;101646.69;;;30.17;38.36
74627;BME280;63132;52.268;5.192;2023-06-22T10:49:59;101659.75;;;30.33;36.70
74627;BME280;63132;52.268;5.192;2023-06-22T10:52:24;101659.44;;;30.23;37.38
74627;BME280;63132;52.268;5.192;2023-06-22T10:54:50;101656.69;;;30.23;37.40
74627;BME280;63132;52.268;5.192;2023-06-22T10:57:15;101662.28;;;30.04;39.14
74627;BME280;63132;52.268;5.192;2023-06-22T10:59:40;101660.59;;;30.46;38.53
74627;BME280;63132;52.268;5.192;2023-06-22T11:02:06;101669.78;;;29.28;38.66
74627;BME280;63132;52.268;5.192;2023-06-22T11:04:31;101654.44;;;29.58;38.43
74627;BME280;63132;52.268;5.192;2023-06-22T11:06:57;101669.25;;;29.38;38.82
74627;BME280;63132;52.268;5.192;2023-06-22T11:09:22;101667.56;;;29.37;39.08
74627;BME280;63132;52.268;5.192;2023-06-22T11:11:48;101673.97;;;29.69;39.99
74627;BME280;63132;52.268;5.192;2023-06-22T11:14:14;101672.44;;;29.35;40.89
74627;BME280;63132;52.268;5.192;2023-06-22T11:16:40;101669.13;;;28.89;41.98
74627;BME280;63132;52.268;5.192;2023-06-22T11:19:05;101676.44;;;29.14;42.20
74627;BME280;63132;52.268;5.192;2023-06-22T11:21:31;101676.78;;;29.24;41.32
74627;BME280;63132;52.268;5.192;2023-06-22T11:23:57;101676.69;;;29.12;42.19
74627;BME280;63132;52.268;5.192;2023-06-22T11:26:24;101667.53;;;29.56;41.87
74627;BME280;63132;52.268;5.192;2023-06-22T11:28:49;101676.09;;;29.29;41.92
74627;BME280;63132;52.268;5.192;2023-06-22T11:31:15;101664.28;;;29.66;41.55
74627;BME280;63132;52.268;5.192;2023-06-22T11:33:40;101658.31;;;29.69;40.44
74627;BME280;63132;52.268;5.192;2023-06-22T11:36:05;101664.75;;;29.25;40.96
74627;BME280;63132;52.268;5.192;2023-06-22T11:38:31;101659.19;;;29.32;40.61
74627;BME280;63132;52.268;5.192;2023-06-22T11:40:58;101662.41;;;29.60;40.39
74627;BME280;63132;52.268;5.192;2023-06-22T11:43:23;101650.22;;;28.62;42.29
74627;BME280;63132;52.268;5.192;2023-06-22T11:45:49;101648.06;;;28.45;42.58
74627;BME280;63132;52.268;5.192;2023-06-22T11:48:15;101653.00;;;28.55;43.54
74627;BME280;63132;52.268;5.192;2023-06-22T11:50:41;101645.41;;;28.24;45.94
74627;BME280;63132;52.268;5.192;2023-06-22T11:53:06;101652.38;;;27.95;48.35
74627;BME280;63132;52.268;5.192;2023-06-22T11:55:32;101640.28;;;27.24;47.67
74627;BME280;63132;52.268;5.192;2023-06-22T11:57:57;101636.50;;;27.05;49.30
74627;BME280;63132;52.268;5.192;2023-06-22T12:00:29;101635.63;;;27.32;50.17
74627;BME280;63132;52.268;5.192;2023-06-22T12:02:55;101638.84;;;27.01;50.49
74627;BME280;63132;52.268;5.192;2023-06-22T12:05:21;101629.22;;;26.78;52.20
74627;BME280;63132;52.268;5.192;2023-06-22T12:07:48;101622.41;;;27.22;50.79
74627;BME280;63132;52.268;5.192;2023-06-22T12:10:13;101617.47;;;26.71;51.60
74627;BME280;63132;52.268;5.192;2023-06-22T12:12:39;101616.59;;;26.98;53.39
74627;BME280;63132;52.268;5.192;2023-06-22T12:15:04;101614.91;;;26.90;53.22
74627;BME280;63132;52.268;5.192;2023-06-22T12:17:30;101613.66;;;26.86;54.33
74627;BME280;63132;52.268;5.192;2023-06-22T12:19:56;101608.19;;;27.06;53.54
74627;BME280;63132;52.268;5.192;2023-06-22T12:22:21;101606.69;;;26.97;53.20
74627;BME280;63132;52.268;5.192;2023-06-22T12:24:47;101605.25;;;26.87;52.71
74627;BME280;63132;52.268;5.192;2023-06-22T12:27:12;101603.81;;;26.64;53.09
74627;BME280;63132;52.268;5.192;2023-06-22T12:29:37;101598.97;;;26.80;52.92
74627;BME280;63132;52.268;5.192;2023-06-22T12:32:03;101610.28;;;26.90;53.14
74627;BME280;63132;52.268;5.192;2023-06-22T12:34:29;101601.13;;;26.57;53.99
74627;BME280;63132;52.268;5.192;2023-06-22T12:36:54;101607.19;;;26.53;53.33
74627;BME280;63132;52.268;5.192;2023-06-22T12:39:20;101600.69;;;26.60;53.86
74627;BME280;63132;52.268;5.192;2023-06-22T12:41:45;101605.09;;;26.21;53.77
74627;BME280;63132;52.268;5.192;2023-06-22T12:44:11;101601.06;;;26.23;52.62
74627;BME280;63132;52.268;5.192;2023-06-22T12:46:36;101601.94;;;26.24;52.06
74627;BME280;63132;52.268;5.192;2023-06-22T12:49:04;101596.47;;;26.24;53.00
74627;BME280;63132;52.268;5.192;2023-06-22T12:51:30;101592.28;;;26.28;53.60
74627;BME280;63132;52.268;5.192;2023-06-22T12:53:56;101592.94;;;26.44;52.75
74627;BME280;63132;52.268;5.192;2023-06-22T12:56:21;101589.50;;;25.81;54.94